Teretulemast minu uuele ilmaprognooside lehele
Praegu on leht veel arendamise järgus: tõlked, linnade lisamine, menüüde korrastamine jne.
Endine leht vt. menüüs! / Andke teada probleemidest(nt. koha valik - kas töötab jne.) menüüs: Muu kraam - Saada kiri.
Puudub vajadus erihoiatuste järele    Hoiatusi ei ole



/home/edgarnuum/domains/hotserv.eq.ee/public_html/nautical/metar/metarDisplay.php

Nearby METAR Reports

   
EEKE - Kuressaare, Estonia
Distance from station: SE 3 km
Uuendatud: 18-04-2021 14:50
Clear  
Clear  
   Tuul: East 5.7 m/s
Tuul: East 5.7 m/s
Temperatuur: 17°C
Kastepunkt: -3°C
Niiskus: 25%
Baromeeter: 1025 hPa
Pilvisus: Clear
Nähtavus: 10 km
Cloud details: Clear m
EEKE 181150Z AUTO 10011KT 9999NDV NCD 17/M03 Q1025
EEKA - Kardla, Estonia
Distance from station: NNE 84 km
Uuendatud: 18-04-2021 14:50
Clear  
Clear  
   Tuul: NNE 5.1 m/s
Tuul: NNE 5.1 m/s
Temperatuur: 8°C
Wind Chill: 5°C
Kastepunkt: 2°C
Niiskus: 66%
Baromeeter: 1027 hPa
Nähtavus: More than 10 km
Cloud details: Clear m
EEKA 181150Z 03010KT CAVOK 08/02 Q1027
EEEI - Harjumaa Amari, Estonia
Distance from station: NE 151 km
Uuendatud: 18-04-2021 14:50
Clear  
Clear  
   Tuul: NE 8.7 m/s
Tuul: NE 8.7 m/s
Temperatuur: 15°C
Kastepunkt: -3°C
Niiskus: 29%
Baromeeter: 1027 hPa
Nähtavus: More than 10 km
Cloud details: Clear m
EEEI 181150Z 05017KT CAVOK 15/M03 Q1027 NOSIG
EETN - Tallinn L. Meri, Estonia
Distance from station: NE 187 km
Uuendatud: 18-04-2021 14:50
Clear  
Clear  
   Tuul: NE 8.2 m/s
Tuul: NE 8.2 m/s
Temperatuur: 13°C
Kastepunkt: -4°C
Niiskus: 31%
Baromeeter: 1028 hPa
Nähtavus: More than 10 km
Cloud details: Clear m
EETN 181150Z 05016KT CAVOK 13/M04 Q1028 NOSIG
EETU - Tartu, Estonia
Distance from station: E 245 km
Uuendatud: 18-04-2021 14:50
Clear  
Clear  
   Tuul: ENE 6.2 m/s
Tuul: ENE 6.2 m/s
Temperatuur: 15°C
Kastepunkt: -5°C
Niiskus: 25%
Baromeeter: 1025 hPa
Nähtavus: More than 10 km
Cloud details: Clear m
EETU 181150Z 06012KT 020V090 CAVOK 15/M05 Q1025
 

Script developed by  Saratoga-weather.org Adapted for the template by  Weerstation Leuven